createdAt,value
2023-01-30T00:03:49.650Z,-1.11
2023-01-30T00:08:54.050Z,-1.00
2023-01-30T00:13:59.606Z,-0.99
2023-01-30T00:19:04.204Z,-0.98
2023-01-30T00:24:09.511Z,-1.03
2023-01-30T00:29:15.353Z,-1.10
2023-01-30T00:34:19.967Z,-1.13
2023-01-30T00:39:24.608Z,-1.28
2023-01-30T00:44:47.778Z,-1.26
2023-01-30T00:49:52.112Z,-1.29
2023-01-30T00:54:56.472Z,-1.34
2023-01-30T01:00:02.432Z,-1.26
2023-01-30T01:05:08.146Z,-1.26
2023-01-30T01:10:16.324Z,-1.19
2023-01-30T01:15:24.020Z,-1.38
2023-01-30T01:20:28.748Z,-1.48
2023-01-30T01:25:33.404Z,-1.50
2023-01-30T01:30:39.520Z,-1.52
2023-01-30T01:35:47.536Z,-1.51
2023-01-30T01:41:06.896Z,-1.57
2023-01-30T01:46:22.408Z,-1.59
2023-01-30T01:51:31.577Z,-1.70
2023-01-30T01:56:39.754Z,-1.63
2023-01-30T02:01:45.749Z,-1.66
2023-01-30T02:06:51.280Z,-1.63
2023-01-30T02:11:59.358Z,-1.71
2023-01-30T02:17:05.105Z,-1.70
2023-01-30T02:22:45.628Z,-1.64
2023-01-30T02:28:26.632Z,-1.68
2023-01-30T02:33:45.293Z,-1.78
2023-01-30T02:39:03.226Z,-1.89
2023-01-30T02:44:18.229Z,-1.90
2023-01-30T02:49:30.600Z,-2.18
2023-01-30T02:54:36.112Z,-2.30
2023-01-30T02:59:46.706Z,-2.29
2023-01-30T03:05:20.377Z,-2.44
2023-01-30T03:10:35.874Z,-2.45
2023-01-30T03:15:49.334Z,-2.53
2023-01-30T03:20:55.098Z,-2.57
2023-01-30T03:26:01.266Z,-2.63
2023-01-30T03:31:06.353Z,-2.54
2023-01-30T03:36:12.716Z,-2.52
2023-01-30T03:41:17.771Z,-2.56
2023-01-30T03:46:23.247Z,-2.64
2023-01-30T03:51:29.070Z,-2.70
2023-01-30T03:56:33.579Z,-2.59
2023-01-30T04:01:38.481Z,-2.61
2023-01-30T04:06:44.445Z,-2.68
2023-01-30T04:11:48.919Z,-2.65
2023-01-30T04:16:54.808Z,-2.67
2023-01-30T04:22:39.123Z,-2.55
2023-01-30T04:27:44.452Z,-2.53
2023-01-30T04:32:53.017Z,-2.50
2023-01-30T04:37:59.338Z,-2.55
2023-01-30T04:43:05.283Z,-2.52
2023-01-30T04:48:13.666Z,-2.53
2023-01-30T04:53:21.237Z,-2.50
2023-01-30T04:58:25.838Z,-2.43
2023-01-30T05:03:30.601Z,-2.48
2023-01-30T05:08:36.522Z,-2.45
2023-01-30T05:13:40.765Z,-2.37
2023-01-30T05:18:45.647Z,-2.30
2023-01-30T05:23:52.518Z,-2.29
2023-01-30T05:28:58.912Z,-2.17
2023-01-30T05:34:03.178Z,-2.16
2023-01-30T05:39:08.909Z,-2.18
2023-01-30T05:44:13.409Z,-2.16
2023-01-30T05:49:18.643Z,-2.10
2023-01-30T05:54:25.003Z,-2.04
2023-01-30T05:59:29.492Z,-2.06
2023-01-30T06:04:33.899Z,-2.01
2023-01-30T06:09:39.452Z,-1.96
2023-01-30T06:14:43.804Z,-1.97
2023-01-30T06:19:48.012Z,-1.93
2023-01-30T06:24:53.653Z,-1.95
2023-01-30T06:29:57.836Z,-1.90
2023-01-30T06:35:02.076Z,-1.85
2023-01-30T06:40:09.315Z,-1.74
2023-01-30T06:45:14.097Z,-1.75
2023-01-30T06:50:21.470Z,-1.66
2023-01-30T06:55:28.593Z,-1.68
2023-01-30T07:00:34.324Z,-1.64
2023-01-30T07:05:39.847Z,-1.60
2023-01-30T07:10:46.228Z,-1.50
2023-01-30T07:15:50.678Z,-1.49
2023-01-30T07:20:55.128Z,-1.36
2023-01-30T07:26:00.770Z,-1.22
2023-01-30T07:31:05.262Z,-1.21
2023-01-30T07:36:10.114Z,-1.13
2023-01-30T07:41:15.765Z,-1.03
2023-01-30T07:46:20.219Z,-0.81
2023-01-30T07:51:24.706Z,-0.77
2023-01-30T07:56:30.175Z,-0.65
2023-01-30T08:01:34.891Z,-0.76
2023-01-30T08:06:39.907Z,-0.69
2023-01-30T08:11:45.935Z,-0.64
2023-01-30T08:16:52.465Z,-0.62
2023-01-30T08:21:56.994Z,-0.60
2023-01-30T08:27:03.293Z,-0.48
2023-01-30T08:32:08.242Z,-0.45
2023-01-30T08:37:12.738Z,-0.40
2023-01-30T08:42:18.535Z,-0.30
2023-01-30T08:47:23.023Z,-0.24
2023-01-30T08:52:27.443Z,-0.20
2023-01-30T08:57:33.809Z,-0.21
2023-01-30T09:02:38.521Z,-0.18
2023-01-30T09:07:43.061Z,-0.36
2023-01-30T09:12:48.792Z,-0.30
2023-01-30T09:17:53.861Z,-0.34
2023-01-30T09:22:58.324Z,-0.39
2023-01-30T09:28:04.167Z,-0.24
2023-01-30T09:33:08.669Z,-0.38
2023-01-30T09:38:12.884Z,-0.47
2023-01-30T09:43:37.055Z,-0.71
2023-01-30T09:48:50.975Z,-0.68
2023-01-30T09:54:10.967Z,-0.82
2023-01-30T09:59:26.482Z,-0.82
2023-01-30T10:04:36.126Z,-0.80
2023-01-30T10:09:52.748Z,-0.79
2023-01-30T10:15:20.166Z,-0.94
2023-01-30T10:20:39.612Z,-0.89
2023-01-30T10:25:48.283Z,-0.76
2023-01-30T10:31:01.884Z,-0.65
2023-01-30T10:36:11.974Z,-0.61
2023-01-30T10:41:27.925Z,-0.55
2023-01-30T10:46:49.047Z,-0.60
2023-01-30T10:52:03.990Z,-0.61
2023-01-30T10:57:20.635Z,-0.52
2023-01-30T11:02:39.822Z,-0.36
2023-01-30T11:07:47.278Z,-0.37
2023-01-30T11:12:55.254Z,-0.23
2023-01-30T11:19:05.279Z,-0.44
2023-01-30T11:23:36.707Z,-0.36
2023-01-30T11:28:45.186Z,-0.31
2023-01-30T11:34:06.919Z,-0.30
2023-01-30T11:39:24.365Z,-0.29
2023-01-30T11:44:31.069Z,-0.23
2023-01-30T11:49:45.162Z,-0.21
2023-01-30T11:55:05.580Z,-0.27
2023-01-30T12:00:18.544Z,-0.34
2023-01-30T12:05:33.069Z,-0.26
2023-01-30T12:10:43.450Z,-0.13
2023-01-30T12:15:53.042Z,-0.08
2023-01-30T12:21:02.505Z,0.10
2023-01-30T12:26:14.687Z,0.10
2023-01-30T12:31:25.734Z,0.07
2023-01-30T12:36:43.876Z,0.28
2023-01-30T12:42:07.600Z,0.39
2023-01-30T12:47:40.174Z,0.34
2023-01-30T12:53:15.160Z,0.39
2023-01-30T12:58:25.037Z,0.44
2023-01-30T13:03:42.232Z,0.55
2023-01-30T13:09:11.691Z,0.58
2023-01-30T13:14:28.120Z,0.50
2023-01-30T13:19:44.051Z,0.53
2023-01-30T13:25:02.067Z,0.56
2023-01-30T13:30:10.594Z,0.69
2023-01-30T13:35:20.978Z,0.77
2023-01-30T13:40:34.673Z,0.78
2023-01-30T13:45:45.086Z,0.85
2023-01-30T13:51:14.097Z,0.74
2023-01-30T13:56:41.323Z,0.78
2023-01-30T14:02:22.381Z,0.77
2023-01-30T14:07:31.178Z,0.73
2023-01-30T14:12:42.343Z,0.76
2023-01-30T14:18:05.335Z,0.72
2023-01-30T14:23:23.786Z,0.79
2023-01-30T14:28:51.174Z,0.85
2023-01-30T14:33:55.565Z,0.79
2023-01-30T14:39:40.683Z,0.74
2023-01-30T14:45:05.076Z,0.75
2023-01-30T14:50:20.959Z,0.77
2023-01-30T14:55:29.583Z,0.75
2023-01-30T15:00:40.130Z,0.81
2023-01-30T15:05:46.859Z,0.77
2023-01-30T15:11:09.579Z,0.77
2023-01-30T15:16:41.958Z,0.80
2023-01-30T15:22:10.159Z,0.81
2023-01-30T15:27:22.040Z,0.84
2023-01-30T15:32:30.668Z,0.84
2023-01-30T15:37:38.216Z,0.88
2023-01-30T15:42:45.788Z,0.86
2023-01-30T15:48:25.350Z,0.90
2023-01-30T15:53:35.154Z,0.91
2023-01-30T15:58:43.527Z,0.92
2023-01-30T16:03:51.200Z,0.94
2023-01-30T16:09:01.845Z,0.96
2023-01-30T16:14:06.812Z,0.98
2023-01-30T16:19:22.890Z,0.99
2023-01-30T16:24:31.998Z,1.03
2023-01-30T16:29:50.754Z,1.02
2023-01-30T16:35:27.776Z,0.98
2023-01-30T16:40:45.100Z,0.90
2023-01-30T16:46:46.509Z,0.79
2023-01-30T16:52:02.141Z,0.70
2023-01-30T16:57:07.008Z,0.61
2023-01-30T17:02:27.040Z,0.61
2023-01-30T17:07:38.588Z,0.66
2023-01-30T17:12:49.681Z,0.74
2023-01-30T17:17:54.334Z,0.77
2023-01-30T17:23:04.312Z,0.78
2023-01-30T17:28:09.881Z,0.81
2023-01-30T17:33:14.370Z,0.83
2023-01-30T17:38:20.190Z,0.83
2023-01-30T17:43:24.932Z,0.79
2023-01-30T17:48:29.350Z,0.84
2023-01-30T17:53:35.684Z,0.85
2023-01-30T17:58:40.164Z,0.89
2023-01-30T18:03:45.011Z,0.88
2023-01-30T18:08:50.772Z,0.89
2023-01-30T18:13:55.222Z,0.87
2023-01-30T18:19:03.477Z,0.87
2023-01-30T18:24:10.492Z,0.85
2023-01-30T18:29:15.371Z,0.82
2023-01-30T18:34:19.569Z,0.80
2023-01-30T18:39:25.984Z,0.76
2023-01-30T18:44:30.470Z,0.73
2023-01-30T18:49:35.037Z,0.70
2023-01-30T18:54:41.169Z,0.73
2023-01-30T18:59:45.572Z,0.80
2023-01-30T19:04:50.012Z,0.76
2023-01-30T19:09:56.466Z,0.80
2023-01-30T19:15:01.473Z,0.84
2023-01-30T19:20:11.067Z,0.92
2023-01-30T19:25:17.492Z,0.92
2023-01-30T19:30:22.194Z,0.91
2023-01-30T19:35:27.005Z,0.92
2023-01-30T19:40:32.696Z,0.88
2023-01-30T19:45:37.457Z,0.91
2023-01-30T19:50:41.915Z,0.89
2023-01-30T19:55:52.831Z,0.82
2023-01-30T20:01:04.963Z,0.83
2023-01-30T20:06:13.110Z,0.80
2023-01-30T20:11:21.826Z,0.79
2023-01-30T20:16:29.869Z,0.81
2023-01-30T20:21:35.915Z,0.88
2023-01-30T20:26:42.201Z,0.97
2023-01-30T20:31:47.143Z,1.04
2023-01-30T20:36:51.985Z,1.11
2023-01-30T20:41:57.648Z,1.15
2023-01-30T20:47:03.473Z,1.23
2023-01-30T20:52:08.394Z,1.25
2023-01-30T20:57:14.364Z,1.29
2023-01-30T21:02:18.954Z,1.33
2023-01-30T21:07:23.612Z,1.35
2023-01-30T21:12:30.502Z,1.39
2023-01-30T21:17:35.233Z,1.43
2023-01-30T21:22:40.231Z,1.47
2023-01-30T21:27:45.841Z,1.48
2023-01-30T21:32:50.369Z,1.52
2023-01-30T21:38:12.488Z,1.51
2023-01-30T21:43:18.402Z,1.53
2023-01-30T21:48:23.126Z,1.53
2023-01-30T21:53:28.304Z,1.50
2023-01-30T21:58:34.617Z,1.49
2023-01-30T22:03:39.939Z,1.41
2023-01-30T22:08:44.832Z,1.41
2023-01-30T22:13:50.704Z,1.45
2023-01-30T22:18:57.657Z,1.46
2023-01-30T22:24:05.586Z,1.39
2023-01-30T22:29:11.448Z,1.24
2023-01-30T22:34:16.099Z,1.23
2023-01-30T22:39:21.231Z,1.19
2023-01-30T22:44:26.973Z,1.20
2023-01-30T22:49:31.383Z,1.24
2023-01-30T22:54:35.780Z,1.22
2023-01-30T22:59:41.511Z,1.26
2023-01-30T23:04:45.896Z,1.33
2023-01-30T23:09:50.317Z,1.40
2023-01-30T23:14:56.302Z,1.39
2023-01-30T23:20:00.759Z,1.46
2023-01-30T23:25:06.156Z,1.39
2023-01-30T23:30:13.617Z,1.36
2023-01-30T23:35:18.319Z,1.42
2023-01-30T23:40:22.956Z,1.41
2023-01-30T23:45:30.711Z,1.39
2023-01-30T23:50:36.771Z,1.40
2023-01-30T23:55:41.728Z,1.39
